createdAt,value
2023-01-20T00:01:15.782Z,13.90
2023-01-20T00:03:42.890Z,13.47
2023-01-20T00:06:09.979Z,13.23
2023-01-20T00:08:36.686Z,14.57
2023-01-20T00:11:09.417Z,14.30
2023-01-20T00:13:37.039Z,12.33
2023-01-20T00:16:08.245Z,12.93
2023-01-20T00:18:35.700Z,13.70
2023-01-20T00:21:10.743Z,13.90
2023-01-20T00:23:37.468Z,13.57
2023-01-20T00:26:05.869Z,13.40
2023-01-20T00:28:32.827Z,11.93
2023-01-20T00:31:09.243Z,12.97
2023-01-20T00:33:35.800Z,11.33
2023-01-20T00:36:02.520Z,11.27
2023-01-20T00:38:29.082Z,11.10
2023-01-20T00:40:56.247Z,10.67
2023-01-20T00:43:23.147Z,11.23
2023-01-20T00:45:49.768Z,11.30
2023-01-20T00:48:16.401Z,12.10
2023-01-20T00:50:43.338Z,12.10
2023-01-20T00:53:09.882Z,11.50
2023-01-20T00:55:36.423Z,11.10
2023-01-20T00:58:03.019Z,12.03
2023-01-20T01:00:29.709Z,12.33
2023-01-20T01:02:56.413Z,11.40
2023-01-20T01:05:23.339Z,12.52
2023-01-20T01:07:49.887Z,11.07
2023-01-20T01:10:16.848Z,10.53
2023-01-20T01:12:43.427Z,10.57
2023-01-20T01:15:10.431Z,10.47
2023-01-20T01:17:37.013Z,10.10
2023-01-20T01:20:04.365Z,10.00
2023-01-20T01:22:33.040Z,9.90
2023-01-20T01:24:59.612Z,9.43
2023-01-20T01:27:28.513Z,9.43
2023-01-20T01:29:55.702Z,9.83
2023-01-20T01:32:23.172Z,9.07
2023-01-20T01:34:49.844Z,9.83
2023-01-20T01:37:16.464Z,9.17
2023-01-20T01:39:43.029Z,9.07
2023-01-20T01:42:15.555Z,8.53
2023-01-20T01:45:10.303Z,9.10
2023-01-20T01:47:38.719Z,9.63
2023-01-20T01:50:06.540Z,9.30
2023-01-20T01:52:33.645Z,9.83
2023-01-20T01:55:00.731Z,9.73
2023-01-20T01:57:29.878Z,9.43
2023-01-20T01:59:56.564Z,8.77
2023-01-20T02:02:24.198Z,9.33
2023-01-20T02:04:51.112Z,9.10
2023-01-20T02:07:20.716Z,8.80
2023-01-20T02:09:47.371Z,8.17
2023-01-20T02:12:17.343Z,9.70
2023-01-20T02:14:48.799Z,9.07
2023-01-20T02:17:31.229Z,10.17
2023-01-20T02:20:34.690Z,9.63
2023-01-20T02:23:16.285Z,10.10
2023-01-20T02:26:09.077Z,9.50
2023-01-20T02:29:07.177Z,10.03
2023-01-20T02:31:58.743Z,8.30
2023-01-20T02:34:52.572Z,9.00
2023-01-20T02:37:25.044Z,9.33
2023-01-20T02:40:11.515Z,9.27
2023-01-20T02:42:53.007Z,8.80
2023-01-20T02:45:29.059Z,9.97
2023-01-20T02:48:12.569Z,10.40
2023-01-20T02:50:52.269Z,9.83
2023-01-20T02:53:20.248Z,10.90
2023-01-20T02:55:49.282Z,11.47
2023-01-20T02:58:40.577Z,10.53
2023-01-20T03:01:36.139Z,14.35
2023-01-20T03:04:04.978Z,11.53
2023-01-20T03:06:38.633Z,10.13
2023-01-20T03:09:10.223Z,10.83
2023-01-20T03:11:42.333Z,11.30
2023-01-20T03:14:12.811Z,10.30
2023-01-20T03:16:40.816Z,11.13
2023-01-20T03:19:07.587Z,11.50
2023-01-20T03:21:34.866Z,11.37
2023-01-20T03:24:03.981Z,11.47
2023-01-20T03:26:30.986Z,11.77
2023-01-20T03:28:58.027Z,11.67
2023-01-20T03:31:34.105Z,12.50
2023-01-20T03:34:03.545Z,12.65
2023-01-20T03:36:31.728Z,12.17
2023-01-20T03:38:59.173Z,12.73
2023-01-20T03:41:39.607Z,12.67
2023-01-20T03:44:48.803Z,11.60
2023-01-20T03:47:24.046Z,12.23
2023-01-20T03:50:18.464Z,12.30
2023-01-20T03:52:55.527Z,11.13
2023-01-20T03:55:28.752Z,11.53
2023-01-20T03:58:08.783Z,12.07
2023-01-20T04:00:39.468Z,12.17
2023-01-20T04:03:13.256Z,11.87
2023-01-20T04:05:41.369Z,11.37
2023-01-20T04:08:09.909Z,11.40
2023-01-20T04:10:40.283Z,11.73
2023-01-20T04:13:06.996Z,11.73
2023-01-20T04:15:39.725Z,14.38
2023-01-20T04:18:22.693Z,11.60
2023-01-20T04:21:03.523Z,11.80
2023-01-20T04:23:39.228Z,10.57
2023-01-20T04:26:05.941Z,11.63
2023-01-20T04:28:32.532Z,11.37
2023-01-20T04:30:59.311Z,10.53
2023-01-20T04:33:25.925Z,12.77
2023-01-20T04:35:52.625Z,11.37
2023-01-20T04:38:19.200Z,12.50
2023-01-20T04:40:45.759Z,11.90
2023-01-20T04:43:12.556Z,13.20
2023-01-20T04:45:41.458Z,11.77
2023-01-20T04:48:09.035Z,11.23
2023-01-20T04:50:39.831Z,11.00
2023-01-20T04:53:06.779Z,10.23
2023-01-20T04:55:34.117Z,10.77
2023-01-20T04:58:00.681Z,10.93
2023-01-20T05:00:27.446Z,11.10
2023-01-20T05:02:57.890Z,9.80
2023-01-20T05:05:25.019Z,10.60
2023-01-20T05:07:56.964Z,11.00
2023-01-20T05:10:23.608Z,10.47
2023-01-20T05:12:50.175Z,10.40
2023-01-20T05:15:17.045Z,9.73
2023-01-20T05:17:43.720Z,10.93
2023-01-20T05:20:11.092Z,9.90
2023-01-20T05:22:37.800Z,9.87
2023-01-20T05:25:04.806Z,9.47
2023-01-20T05:27:31.413Z,8.83
2023-01-20T05:29:57.980Z,9.93
2023-01-20T05:32:24.548Z,9.03
2023-01-20T05:34:51.153Z,10.67
2023-01-20T05:37:18.489Z,9.60
2023-01-20T05:39:45.114Z,10.00
2023-01-20T05:42:11.763Z,10.07
2023-01-20T05:44:38.359Z,9.77
2023-01-20T05:47:05.016Z,9.67
2023-01-20T05:49:31.634Z,9.87
2023-01-20T05:51:58.224Z,10.37
2023-01-20T05:54:26.080Z,9.83
2023-01-20T05:56:52.718Z,9.83
2023-01-20T05:59:19.289Z,10.83
2023-01-20T06:01:45.875Z,10.00
2023-01-20T06:04:12.443Z,11.77
2023-01-20T06:06:39.187Z,10.27
2023-01-20T06:09:06.609Z,9.27
2023-01-20T06:11:33.319Z,8.53
2023-01-20T06:13:59.852Z,8.43
2023-01-20T06:16:26.506Z,8.87
2023-01-20T06:18:53.227Z,8.47
2023-01-20T06:21:19.817Z,9.17
2023-01-20T06:23:46.489Z,8.90
2023-01-20T06:26:14.047Z,8.90
2023-01-20T06:28:41.234Z,9.13
2023-01-20T06:31:14.368Z,9.27
2023-01-20T06:33:41.506Z,9.53
2023-01-20T06:36:11.018Z,9.63
2023-01-20T06:38:37.592Z,10.57
2023-01-20T06:41:07.024Z,10.07
2023-01-20T06:43:35.009Z,11.20
2023-01-20T06:46:03.134Z,12.33
2023-01-20T06:48:30.144Z,12.07
2023-01-20T06:51:09.377Z,11.00
2023-01-20T06:53:35.968Z,11.33
2023-01-20T06:56:03.247Z,10.97
2023-01-20T06:58:31.362Z,11.07
2023-01-20T07:00:59.049Z,11.57
2023-01-20T07:03:25.707Z,10.73
2023-01-20T07:06:02.600Z,10.83
2023-01-20T07:08:29.291Z,10.60
2023-01-20T07:10:56.284Z,11.33
2023-01-20T07:13:22.894Z,10.80
2023-01-20T07:15:49.552Z,10.43
2023-01-20T07:18:16.106Z,12.47
2023-01-20T07:20:43.743Z,11.03
2023-01-20T07:23:10.376Z,9.97
2023-01-20T07:25:37.995Z,9.00
2023-01-20T07:28:05.035Z,10.30
2023-01-20T07:30:31.630Z,10.40
2023-01-20T07:32:59.270Z,10.43
2023-01-20T07:35:25.836Z,10.03
2023-01-20T07:37:52.436Z,10.50
2023-01-20T07:40:19.070Z,9.50
2023-01-20T07:42:45.608Z,9.70
2023-01-20T07:45:12.392Z,10.40
2023-01-20T07:47:39.076Z,10.03
2023-01-20T07:50:06.048Z,10.30
2023-01-20T07:52:32.609Z,9.57
2023-01-20T07:54:59.163Z,9.60
2023-01-20T07:57:25.752Z,10.63
2023-01-20T07:59:52.319Z,9.70
2023-01-20T08:02:18.853Z,9.17
2023-01-20T08:04:45.433Z,9.47
2023-01-20T08:07:11.995Z,9.23
2023-01-20T08:09:40.751Z,9.53
2023-01-20T08:12:07.516Z,8.00
2023-01-20T08:14:36.324Z,8.27
2023-01-20T08:17:04.160Z,9.60
2023-01-20T08:19:30.706Z,8.73
2023-01-20T08:21:57.353Z,8.77
2023-01-20T08:24:23.892Z,8.00
2023-01-20T08:26:51.363Z,8.77
2023-01-20T08:29:17.982Z,8.57
2023-01-20T08:31:44.736Z,9.10
2023-01-20T08:34:12.218Z,8.40
2023-01-20T08:36:40.925Z,8.10
2023-01-20T08:39:10.257Z,8.20
2023-01-20T08:41:39.504Z,8.60
2023-01-20T08:44:07.589Z,7.77
2023-01-20T08:46:35.124Z,7.93
2023-01-20T08:49:01.825Z,8.27
2023-01-20T08:51:31.074Z,8.40
2023-01-20T08:53:58.224Z,8.53
2023-01-20T08:56:25.138Z,8.87
2023-01-20T08:58:52.013Z,9.17
2023-01-20T09:01:21.252Z,8.93
2023-01-20T09:04:03.868Z,10.07
2023-01-20T09:06:45.902Z,9.63
2023-01-20T09:09:14.256Z,10.27
2023-01-20T09:11:41.115Z,11.88
2023-01-20T09:14:07.719Z,10.47
2023-01-20T09:16:34.298Z,10.40
2023-01-20T09:19:00.883Z,10.63
2023-01-20T09:21:27.490Z,10.17
2023-01-20T09:23:54.220Z,10.03
2023-01-20T09:26:34.920Z,9.37
2023-01-20T09:29:08.861Z,10.03
2023-01-20T09:31:40.750Z,10.50
2023-01-20T09:34:07.493Z,9.73
2023-01-20T09:36:34.133Z,9.93
2023-01-20T09:39:19.666Z,10.07
2023-01-20T09:42:08.409Z,9.17
2023-01-20T09:44:40.695Z,9.73
2023-01-20T09:47:26.030Z,8.50
2023-01-20T09:50:37.225Z,8.13
2023-01-20T09:53:15.315Z,7.53
2023-01-20T09:55:51.143Z,8.33
2023-01-20T09:58:34.997Z,7.43
2023-01-20T10:01:38.486Z,6.77
2023-01-20T10:04:17.305Z,7.00
2023-01-20T10:06:48.458Z,6.80
2023-01-20T10:09:28.929Z,7.00
2023-01-20T10:12:18.484Z,7.60
2023-01-20T10:14:55.547Z,6.20
2023-01-20T10:17:25.239Z,8.00
2023-01-20T10:20:12.776Z,6.77
2023-01-20T10:22:51.580Z,7.60
2023-01-20T10:25:23.770Z,7.63
2023-01-20T10:27:55.273Z,7.43
2023-01-20T10:30:29.460Z,7.10
2023-01-20T10:33:02.539Z,7.10
2023-01-20T10:35:33.330Z,6.80
2023-01-20T10:38:00.125Z,6.60
2023-01-20T10:40:36.562Z,6.83
2023-01-20T10:43:12.879Z,6.90
2023-01-20T10:46:04.157Z,7.17
2023-01-20T10:49:01.793Z,6.60
2023-01-20T10:51:28.321Z,6.33
2023-01-20T10:54:03.088Z,6.60
2023-01-20T10:56:45.083Z,6.33
2023-01-20T10:59:44.090Z,5.13
2023-01-20T11:02:35.039Z,6.23
2023-01-20T11:05:03.575Z,5.60
2023-01-20T11:07:32.808Z,5.57
2023-01-20T11:10:13.515Z,5.70
2023-01-20T11:12:42.175Z,6.83
2023-01-20T11:15:41.267Z,6.33
2023-01-20T11:18:14.014Z,6.90
2023-01-20T11:20:49.762Z,6.17
2023-01-20T11:23:19.263Z,5.07
2023-01-20T11:25:57.929Z,6.30
2023-01-20T11:28:25.276Z,6.57
2023-01-20T11:30:54.170Z,5.40
2023-01-20T11:33:27.046Z,5.57
2023-01-20T11:36:21.157Z,5.40
2023-01-20T11:38:49.732Z,5.77
2023-01-20T11:41:20.115Z,6.45
2023-01-20T11:43:48.016Z,5.23
2023-01-20T11:46:33.308Z,5.00
2023-01-20T11:49:16.975Z,4.83
2023-01-20T11:51:53.233Z,4.83
2023-01-20T11:54:28.587Z,5.37
2023-01-20T11:57:06.512Z,5.83
2023-01-20T11:59:36.142Z,5.47
2023-01-20T12:02:23.310Z,5.90
2023-01-20T12:04:58.835Z,5.97
2023-01-20T12:07:32.056Z,6.63
2023-01-20T12:10:05.985Z,6.77
2023-01-20T12:13:07.929Z,6.73
2023-01-20T12:15:41.882Z,7.13
2023-01-20T12:18:15.919Z,6.83
2023-01-20T12:20:55.098Z,6.20
2023-01-20T12:23:58.691Z,6.70
2023-01-20T12:26:26.246Z,6.83
2023-01-20T12:29:44.772Z,6.53
2023-01-20T12:32:11.538Z,5.90
2023-01-20T12:34:38.699Z,5.83
2023-01-20T12:37:28.689Z,5.90
2023-01-20T12:40:08.592Z,5.53
2023-01-20T12:42:53.774Z,5.70
2023-01-20T12:45:45.261Z,5.07
2023-01-20T12:48:21.908Z,4.87
2023-01-20T12:51:23.741Z,4.90
2023-01-20T12:53:54.632Z,5.53
2023-01-20T12:56:55.364Z,5.90
2023-01-20T12:59:33.468Z,5.20
2023-01-20T13:02:12.807Z,5.27
2023-01-20T13:05:05.771Z,5.30
2023-01-20T13:07:41.392Z,4.33
2023-01-20T13:10:51.534Z,4.47
2023-01-20T13:14:03.423Z,2.93
2023-01-20T13:16:42.389Z,3.73
2023-01-20T13:19:17.024Z,3.33
2023-01-20T13:21:43.674Z,3.40
2023-01-20T13:24:24.200Z,3.60
2023-01-20T13:26:51.192Z,3.47
2023-01-20T13:29:42.783Z,3.67
2023-01-20T13:32:34.408Z,3.50
2023-01-20T13:35:23.086Z,3.47
2023-01-20T13:37:52.291Z,3.30
2023-01-20T13:40:33.907Z,3.30
2023-01-20T13:43:00.624Z,3.37
2023-01-20T13:45:27.794Z,3.43
2023-01-20T13:48:02.280Z,2.93
2023-01-20T13:50:43.271Z,3.17
2023-01-20T13:53:20.142Z,3.17
2023-01-20T13:55:49.587Z,2.80
2023-01-20T13:58:20.312Z,3.13
2023-01-20T14:00:49.744Z,2.93
2023-01-20T14:03:19.186Z,2.97
2023-01-20T14:05:50.104Z,3.33
2023-01-20T14:08:17.059Z,3.07
2023-01-20T14:10:43.680Z,3.00
2023-01-20T14:13:24.307Z,2.93
2023-01-20T14:15:54.295Z,2.77
2023-01-20T14:18:23.457Z,3.30
2023-01-20T14:21:17.367Z,4.03
2023-01-20T14:23:46.207Z,3.73
2023-01-20T14:26:19.940Z,3.00
2023-01-20T14:28:52.335Z,3.10
2023-01-20T14:31:22.683Z,3.53
2023-01-20T14:33:57.357Z,4.23
2023-01-20T14:36:25.901Z,3.80
2023-01-20T14:38:58.901Z,3.57
2023-01-20T14:41:46.800Z,3.60
2023-01-20T14:44:18.616Z,3.88
2023-01-20T14:46:46.032Z,3.43
2023-01-20T14:49:16.184Z,3.67
2023-01-20T14:51:43.523Z,4.00
2023-01-20T14:54:41.463Z,3.60
2023-01-20T14:57:24.985Z,3.80
2023-01-20T15:00:19.070Z,3.37
2023-01-20T15:03:01.389Z,3.93
2023-01-20T15:05:37.365Z,3.83
2023-01-20T15:08:06.332Z,3.60
2023-01-20T15:10:33.008Z,3.93
2023-01-20T15:13:03.198Z,3.77
2023-01-20T15:15:32.204Z,3.63
2023-01-20T15:18:08.814Z,3.80
2023-01-20T15:20:38.902Z,3.80
2023-01-20T15:23:20.529Z,3.90
2023-01-20T15:25:51.583Z,4.13
2023-01-20T15:28:28.863Z,4.47
2023-01-20T15:30:57.925Z,4.33
2023-01-20T15:33:25.683Z,3.93
2023-01-20T15:35:59.753Z,3.80
2023-01-20T15:38:32.060Z,3.90
2023-01-20T15:40:58.612Z,3.70
2023-01-20T15:43:25.260Z,4.90
2023-01-20T15:45:51.860Z,4.77
2023-01-20T15:48:21.155Z,5.33
2023-01-20T15:50:48.683Z,5.63
2023-01-20T15:53:15.718Z,6.50
2023-01-20T15:55:51.780Z,6.63
2023-01-20T15:58:30.587Z,5.63
2023-01-20T16:00:58.405Z,4.93
2023-01-20T16:03:26.335Z,4.70
2023-01-20T16:05:55.617Z,4.27
2023-01-20T16:08:35.380Z,4.33
2023-01-20T16:11:02.091Z,4.70
2023-01-20T16:13:28.757Z,5.10
2023-01-20T16:15:55.840Z,4.90
2023-01-20T16:18:22.554Z,4.37
2023-01-20T16:20:52.744Z,4.90
2023-01-20T16:23:19.629Z,4.70
2023-01-20T16:25:46.208Z,4.10
2023-01-20T16:28:21.327Z,4.30
2023-01-20T16:30:48.597Z,4.70
2023-01-20T16:33:21.104Z,5.73
2023-01-20T16:35:50.151Z,5.70
2023-01-20T16:38:19.004Z,5.70
2023-01-20T16:40:50.237Z,6.67
2023-01-20T16:43:18.813Z,5.20
2023-01-20T16:45:52.396Z,5.63
2023-01-20T16:48:18.993Z,6.80
2023-01-20T16:50:45.657Z,6.27
2023-01-20T16:53:13.519Z,6.67
2023-01-20T16:55:43.454Z,8.90
2023-01-20T16:58:09.996Z,9.10
2023-01-20T17:00:37.464Z,7.97
2023-01-20T17:03:04.428Z,8.93
2023-01-20T17:05:31.036Z,9.73
2023-01-20T17:07:58.834Z,9.50
2023-01-20T17:10:28.095Z,8.13
2023-01-20T17:12:55.869Z,7.57
2023-01-20T17:15:23.251Z,7.40
2023-01-20T17:17:55.760Z,7.30
2023-01-20T17:20:23.189Z,7.33
2023-01-20T17:22:52.084Z,6.33
2023-01-20T17:25:19.010Z,5.83
2023-01-20T17:27:45.539Z,5.87
2023-01-20T17:30:12.446Z,6.03
2023-01-20T17:32:39.068Z,6.70
2023-01-20T17:35:06.045Z,8.90
2023-01-20T17:37:32.706Z,6.97
2023-01-20T17:40:00.350Z,9.40
2023-01-20T17:42:26.926Z,10.33
2023-01-20T17:44:53.467Z,9.37
2023-01-20T17:47:20.081Z,9.07
2023-01-20T17:49:46.740Z,7.93
2023-01-20T17:52:13.331Z,8.43
2023-01-20T17:54:39.982Z,13.02
2023-01-20T17:57:06.578Z,11.07
2023-01-20T17:59:33.143Z,11.30
2023-01-20T18:01:59.758Z,12.33
2023-01-20T18:04:26.528Z,7.43
2023-01-20T18:06:53.564Z,7.50
2023-01-20T18:09:20.548Z,6.47
2023-01-20T18:11:47.621Z,5.67
2023-01-20T18:14:14.606Z,6.00
2023-01-20T18:16:42.047Z,5.87
2023-01-20T18:19:12.994Z,6.10
2023-01-20T18:21:41.558Z,6.30
2023-01-20T18:24:10.326Z,5.90
2023-01-20T18:26:38.394Z,7.03
2023-01-20T18:29:07.002Z,8.43
2023-01-20T18:31:34.819Z,8.07
2023-01-20T18:34:03.196Z,8.37
2023-01-20T18:36:31.790Z,8.37
2023-01-20T18:39:00.491Z,8.07
2023-01-20T18:41:28.304Z,7.17
2023-01-20T18:43:56.470Z,12.10
2023-01-20T18:46:24.895Z,7.43
2023-01-20T18:48:53.327Z,7.90
2023-01-20T18:51:21.401Z,7.00
2023-01-20T18:53:54.335Z,10.20
2023-01-20T18:56:21.756Z,10.87
2023-01-20T18:58:49.996Z,14.03
2023-01-20T19:01:20.751Z,19.17
2023-01-20T19:03:49.588Z,12.40
2023-01-20T19:06:24.886Z,10.83
2023-01-20T19:08:53.636Z,11.47
2023-01-20T19:11:24.201Z,10.00
2023-01-20T19:13:54.767Z,8.90
2023-01-20T19:16:24.682Z,10.03
2023-01-20T19:18:54.153Z,8.23
2023-01-20T19:21:23.064Z,12.00
2023-01-20T19:23:54.809Z,11.80
2023-01-20T19:26:23.503Z,10.37
2023-01-20T19:28:57.328Z,11.57
2023-01-20T19:31:25.609Z,10.13
2023-01-20T19:33:53.978Z,10.43
2023-01-20T19:36:23.349Z,9.07
2023-01-20T19:38:51.723Z,8.67
2023-01-20T19:41:21.720Z,8.80
2023-01-20T19:43:50.104Z,9.88
2023-01-20T19:46:20.317Z,42.13
2023-01-20T19:48:48.803Z,16.70
2023-01-20T19:51:17.484Z,13.90
2023-01-20T19:53:46.076Z,16.43
2023-01-20T19:56:19.345Z,11.67
2023-01-20T19:58:48.411Z,9.83
2023-01-20T20:01:18.080Z,10.37
2023-01-20T20:03:46.386Z,9.07
2023-01-20T20:06:47.006Z,8.47
2023-01-20T20:09:18.208Z,13.43
2023-01-20T20:11:46.493Z,8.20
2023-01-20T20:14:16.010Z,6.83
2023-01-20T20:16:46.085Z,7.17
2023-01-20T20:19:16.048Z,11.83
2023-01-20T20:21:44.945Z,8.10
2023-01-20T20:24:14.096Z,9.27
2023-01-20T20:26:44.417Z,8.90
2023-01-20T20:29:13.085Z,9.03
2023-01-20T20:31:41.996Z,8.73
2023-01-20T20:34:10.936Z,8.33
2023-01-20T20:36:39.078Z,7.23
2023-01-20T20:39:07.839Z,6.37
2023-01-20T20:41:36.539Z,7.20
2023-01-20T20:44:04.949Z,7.60
2023-01-20T20:46:33.269Z,9.23
2023-01-20T20:49:02.178Z,7.03
2023-01-20T20:51:31.864Z,29.23
2023-01-20T20:54:01.173Z,7.90
2023-01-20T20:56:33.080Z,7.50
2023-01-20T20:59:03.132Z,17.37
2023-01-20T21:01:32.960Z,6.63
2023-01-20T21:04:01.239Z,8.27
2023-01-20T21:06:29.875Z,9.47
2023-01-20T21:08:58.664Z,8.50
2023-01-20T21:11:27.010Z,8.23
2023-01-20T21:13:55.147Z,15.53
2023-01-20T21:16:24.044Z,7.87
2023-01-20T21:18:53.605Z,7.63
2023-01-20T21:21:22.190Z,7.60
2023-01-20T21:23:51.459Z,7.77
2023-01-20T21:26:19.773Z,7.57
2023-01-20T21:28:49.190Z,7.23
2023-01-20T21:31:20.668Z,8.57
2023-01-20T21:33:49.222Z,6.57
2023-01-20T21:36:17.097Z,8.25
2023-01-20T21:38:46.391Z,7.57
2023-01-20T21:41:15.216Z,7.73
2023-01-20T21:44:02.781Z,7.97
2023-01-20T21:46:31.801Z,7.80
2023-01-20T21:49:18.277Z,7.57
2023-01-20T21:52:05.190Z,6.67
2023-01-20T21:54:34.149Z,7.07
2023-01-20T21:57:02.777Z,7.37
2023-01-20T21:59:30.702Z,7.30
2023-01-20T22:01:58.772Z,6.97
2023-01-20T22:04:26.686Z,7.67
2023-01-20T22:06:54.531Z,7.53
2023-01-20T22:09:22.399Z,7.70
2023-01-20T22:11:50.774Z,7.33
2023-01-20T22:14:18.665Z,8.63
2023-01-20T22:16:46.516Z,7.80
2023-01-20T22:19:14.731Z,7.57
2023-01-20T22:21:42.909Z,8.90
2023-01-20T22:24:11.320Z,8.90
2023-01-20T22:26:39.722Z,8.80
2023-01-20T22:29:07.633Z,10.60
2023-01-20T22:31:35.550Z,10.07
2023-01-20T22:34:05.151Z,9.63
2023-01-20T22:36:33.406Z,10.17
2023-01-20T22:39:01.295Z,10.03
2023-01-20T22:41:29.400Z,9.60
2023-01-20T22:43:57.508Z,8.70
2023-01-20T22:46:26.524Z,9.17
2023-01-20T22:48:55.178Z,8.10
2023-01-20T22:51:23.937Z,8.93
2023-01-20T22:53:54.139Z,8.53
2023-01-20T22:56:23.148Z,8.87
2023-01-20T22:58:51.128Z,9.53
2023-01-20T23:01:20.611Z,9.13
2023-01-20T23:03:48.860Z,9.63
2023-01-20T23:06:16.835Z,9.33
2023-01-20T23:08:44.829Z,9.57
2023-01-20T23:11:14.377Z,9.67
2023-01-20T23:13:42.935Z,10.23
2023-01-20T23:16:16.468Z,10.47
2023-01-20T23:18:44.840Z,10.23
2023-01-20T23:21:12.846Z,11.10
2023-01-20T23:23:40.980Z,10.67
2023-01-20T23:26:12.085Z,11.75
2023-01-20T23:28:40.035Z,11.60
2023-01-20T23:31:09.484Z,10.87
2023-01-20T23:33:37.513Z,11.13
2023-01-20T23:36:06.391Z,11.17
2023-01-20T23:38:34.577Z,11.03
2023-01-20T23:41:03.145Z,11.27
2023-01-20T23:43:31.728Z,11.20
2023-01-20T23:46:00.606Z,11.77
2023-01-20T23:48:29.082Z,11.60
2023-01-20T23:50:59.745Z,10.33
2023-01-20T23:53:28.512Z,10.80
2023-01-20T23:56:03.742Z,11.47
2023-01-20T23:58:32.024Z,9.63
